createdAt,value
2018-02-11T00:00:54.192Z,100423.02
2018-02-11T00:03:21.949Z,100408.17
2018-02-11T00:05:49.735Z,100406.85
2018-02-11T00:08:17.852Z,100389.89
2018-02-11T00:10:45.588Z,100394.30
2018-02-11T00:13:14.585Z,100382.41
2018-02-11T00:15:44.479Z,100366.88
2018-02-11T00:18:12.217Z,100371.59
2018-02-11T00:20:40.390Z,100366.09
2018-02-11T00:23:11.238Z,100356.59
2018-02-11T00:25:40.016Z,100347.38
2018-02-11T00:28:07.825Z,100336.41
2018-02-11T00:30:36.415Z,100331.19
2018-02-11T00:33:04.317Z,100323.03
2018-02-11T00:35:32.117Z,100324.23
2018-02-11T00:38:11.847Z,100311.41
2018-02-11T00:40:39.690Z,100304.45
2018-02-11T00:43:07.489Z,100297.22
2018-02-11T00:45:35.659Z,100287.34
2018-02-11T00:48:06.509Z,100283.85
2018-02-11T00:50:34.671Z,100278.66
2018-02-11T00:53:06.851Z,100262.35
2018-02-11T00:55:36.738Z,100265.02
2018-02-11T00:58:04.514Z,100259.27
2018-02-11T01:00:32.885Z,100241.11
2018-02-11T01:03:00.666Z,100242.83
2018-02-11T01:05:28.416Z,100232.81
2018-02-11T01:07:56.544Z,100232.81
2018-02-11T01:10:24.291Z,100230.39
2018-02-11T01:12:53.303Z,100224.66
2018-02-11T01:15:21.114Z,100212.63
2018-02-11T01:17:48.966Z,100206.48
2018-02-11T01:20:16.704Z,100197.13
2018-02-11T01:22:44.419Z,100185.75
2018-02-11T01:25:12.580Z,100175.61
2018-02-11T01:27:40.757Z,100175.06
2018-02-11T01:30:08.803Z,100172.27
2018-02-11T01:32:37.225Z,100157.57
2018-02-11T01:35:06.406Z,100164.77
2018-02-11T01:37:35.776Z,100151.95
2018-02-11T01:40:03.661Z,100150.61
2018-02-11T01:42:32.351Z,100145.00
2018-02-11T01:45:00.129Z,100139.38
2018-02-11T01:47:27.849Z,100130.05
2018-02-11T01:50:07.709Z,100121.22
2018-02-11T01:52:36.138Z,100117.07
2018-02-11T01:55:04.710Z,100112.41
2018-02-11T01:57:32.607Z,100103.06
2018-02-11T02:00:00.492Z,100083.41
2018-02-11T02:02:28.410Z,100075.02
2018-02-11T02:04:56.205Z,100067.78
2018-02-11T02:07:25.036Z,100053.09
2018-02-11T02:09:53.549Z,100047.23
2018-02-11T02:12:22.033Z,100029.84
2018-02-11T02:14:49.870Z,100036.27
2018-02-11T02:17:17.680Z,100031.17
2018-02-11T02:19:45.897Z,100023.70
2018-02-11T02:22:14.035Z,100019.01
2018-02-11T02:24:44.022Z,100006.47
2018-02-11T02:27:15.067Z,100004.87
2018-02-11T02:29:46.659Z,99991.92
2018-02-11T02:32:20.081Z,99995.38
2018-02-11T02:34:51.404Z,99997.12
2018-02-11T02:39:55.575Z,99975.20
2018-02-11T02:42:25.044Z,99977.49
2018-02-11T02:44:54.996Z,99960.77
2018-02-11T02:47:22.813Z,99955.16
2018-02-11T02:49:50.679Z,99942.20
2018-02-11T02:52:18.957Z,99935.27
2018-02-11T02:54:46.784Z,99928.45
2018-02-11T02:57:16.726Z,99917.09
2018-02-11T02:59:44.567Z,99903.33
2018-02-11T03:02:13.953Z,99899.19
2018-02-11T03:04:42.848Z,99888.36
2018-02-11T03:07:10.640Z,99876.73
2018-02-11T03:09:39.672Z,99867.23
2018-02-11T03:12:07.419Z,99859.06
2018-02-11T03:14:35.466Z,99854.23
2018-02-11T03:17:03.170Z,99842.33
2018-02-11T03:19:30.865Z,99835.77
2018-02-11T03:21:58.662Z,99832.55
2018-02-11T03:24:26.842Z,99828.80
2018-02-11T03:26:54.490Z,99813.83
2018-02-11T03:29:22.200Z,99806.62
2018-02-11T03:31:49.957Z,99803.13
2018-02-11T03:34:18.625Z,99791.09
2018-02-11T03:36:49.062Z,99794.96
2018-02-11T03:39:17.521Z,99788.53
2018-02-11T03:41:45.239Z,99783.58
2018-02-11T03:44:13.062Z,99779.63
2018-02-11T03:46:40.818Z,99772.02
2018-02-11T03:49:09.297Z,99766.39
2018-02-11T03:51:37.023Z,99765.97
2018-02-11T03:54:04.855Z,99753.78
2018-02-11T03:56:32.594Z,99748.57
2018-02-11T03:59:00.411Z,99743.77
2018-02-11T04:01:31.387Z,99726.77
2018-02-11T04:04:00.204Z,99725.52
2018-02-11T04:06:30.823Z,99722.19
2018-02-11T04:09:00.486Z,99716.29
2018-02-11T04:11:37.411Z,99712.13
2018-02-11T04:17:11.100Z,99708.66
2018-02-11T04:19:49.482Z,99682.70
2018-02-11T04:22:39.062Z,99682.16
2018-02-11T04:25:22.313Z,99676.11
2018-02-11T04:30:41.088Z,99673.70
2018-02-11T04:33:28.161Z,99664.98
2018-02-11T04:36:24.842Z,99661.93
2018-02-11T04:56:46.931Z,99614.16
2018-02-11T05:15:21.718Z,99538.54
2018-02-11T06:36:42.920Z,99465.73
2018-02-11T06:39:10.802Z,99455.00
2018-02-11T06:41:40.958Z,99463.92
2018-02-11T06:44:08.701Z,99459.20
2018-02-11T06:46:36.492Z,99470.69
2018-02-11T06:49:04.367Z,99471.40
2018-02-11T06:51:32.144Z,99460.06
2018-02-11T06:53:59.957Z,99472.25
2018-02-11T06:56:28.233Z,99467.65
2018-02-11T06:58:57.826Z,99450.95
2018-02-11T07:01:26.678Z,99453.15
2018-02-11T07:03:54.729Z,99472.63
2018-02-11T07:06:22.461Z,99469.48
2018-02-11T07:08:50.262Z,99453.67
2018-02-11T07:11:18.075Z,99453.23
2018-02-11T07:13:45.899Z,99461.18
2018-02-11T07:16:13.678Z,99462.19
2018-02-11T07:18:42.205Z,99462.64
2018-02-11T07:21:09.928Z,99470.37
2018-02-11T07:23:37.646Z,99464.12
2018-02-11T07:26:05.359Z,99463.56
2018-02-11T07:28:33.154Z,99453.74
2018-02-11T07:31:00.901Z,99466.17
2018-02-11T07:33:28.614Z,99463.30
2018-02-11T07:35:56.368Z,99462.59
2018-02-11T07:38:24.100Z,99463.48
2018-02-11T07:40:51.877Z,99464.34
2018-02-11T07:43:19.583Z,99455.62
2018-02-11T07:45:47.332Z,99462.25
2018-02-11T07:48:15.048Z,99476.67
2018-02-11T07:50:42.822Z,99476.75
2018-02-11T07:53:10.540Z,99469.83
2018-02-11T07:55:38.338Z,99479.36
2018-02-11T07:58:06.096Z,99471.98
2018-02-11T08:00:33.873Z,99473.39
2018-02-11T08:03:01.677Z,99475.66
2018-02-11T08:05:29.955Z,99478.11
2018-02-11T08:07:57.670Z,99478.22
2018-02-11T08:10:25.428Z,99477.31
2018-02-11T08:12:53.174Z,99483.30
2018-02-11T08:15:21.977Z,99478.98
2018-02-11T08:17:49.648Z,99481.84
2018-02-11T08:20:17.312Z,99475.25
2018-02-11T08:22:46.269Z,99475.31
2018-02-11T08:25:14.407Z,99483.46
2018-02-11T08:27:42.094Z,99474.37
2018-02-11T08:30:09.875Z,99472.45
2018-02-11T08:32:37.643Z,99479.41
2018-02-11T08:35:05.988Z,99473.94
2018-02-11T08:37:33.738Z,99476.78
2018-02-11T08:40:01.464Z,99482.61
2018-02-11T08:42:29.294Z,99480.52
2018-02-11T08:44:57.906Z,99467.84
2018-02-11T08:47:25.966Z,99481.16
2018-02-11T08:49:53.729Z,99482.04
2018-02-11T08:52:21.447Z,99484.09
2018-02-11T08:54:49.145Z,99482.41
2018-02-11T08:57:16.931Z,99482.89
2018-02-11T08:59:57.409Z,99486.23
2018-02-11T09:05:05.523Z,99474.84
2018-02-11T09:07:33.203Z,99485.17
2018-02-11T09:10:00.939Z,99484.16
2018-02-11T09:12:28.685Z,99486.84
2018-02-11T09:14:56.435Z,99489.58
2018-02-11T09:17:24.200Z,99488.76
2018-02-11T09:19:52.705Z,99490.61
2018-02-11T09:22:21.362Z,99482.45
2018-02-11T09:24:50.721Z,99497.74
2018-02-11T09:30:07.534Z,99498.25
2018-02-11T09:36:11.798Z,99506.57
2018-02-11T09:39:20.834Z,99497.48
2018-02-11T10:17:11.982Z,99542.39
2018-02-11T10:19:39.775Z,99540.43
2018-02-11T10:22:07.521Z,99554.30
2018-02-11T10:24:35.283Z,99550.11
2018-02-11T10:27:03.057Z,99545.97
2018-02-11T10:29:30.873Z,99556.34
2018-02-11T10:32:00.128Z,99549.13
2018-02-11T10:34:27.859Z,99560.13
2018-02-11T10:36:55.598Z,99562.20
2018-02-11T10:39:26.740Z,99570.90
2018-02-11T10:41:55.361Z,99570.16
2018-02-11T10:44:26.954Z,99567.48
2018-02-11T10:46:56.027Z,99583.38
2018-02-11T10:49:23.949Z,99572.64
2018-02-11T10:51:51.823Z,99575.93
2018-02-11T10:54:19.650Z,99579.34
2018-02-11T10:56:48.245Z,99581.27
2018-02-11T10:59:15.990Z,99586.97
2018-02-11T11:01:46.378Z,99588.35
2018-02-11T11:04:15.091Z,99588.82
2018-02-11T11:06:42.814Z,99587.67
2018-02-11T11:09:10.529Z,99589.86
2018-02-11T11:11:38.325Z,99579.00
2018-02-11T11:14:06.108Z,99594.11
2018-02-11T11:16:33.806Z,99588.70
2018-02-11T11:19:01.517Z,99590.58
2018-02-11T11:21:29.711Z,99591.23
2018-02-11T11:23:58.818Z,99588.86
2018-02-11T11:26:26.637Z,99595.05
2018-02-11T11:28:55.040Z,99592.95
2018-02-11T11:31:22.772Z,99599.65
2018-02-11T11:33:51.715Z,99601.44
2018-02-11T11:36:19.497Z,99595.61
2018-02-11T11:38:47.246Z,99595.39
2018-02-11T11:41:14.948Z,99604.68
2018-02-11T11:43:43.109Z,99607.14
2018-02-11T11:46:12.593Z,99606.47
2018-02-11T11:48:40.532Z,99607.93
2018-02-11T11:51:08.311Z,99605.64
2018-02-11T11:53:36.011Z,99608.48
2018-02-11T11:56:03.795Z,99609.12
2018-02-11T11:58:31.528Z,99599.02
2018-02-11T12:00:59.467Z,99604.48
2018-02-11T12:03:27.205Z,99606.06
2018-02-11T12:05:54.925Z,99602.05
2018-02-11T12:08:22.642Z,99593.33
2018-02-11T12:10:50.490Z,99604.31
2018-02-11T12:13:19.305Z,99602.86
2018-02-11T12:15:47.022Z,99607.75
2018-02-11T12:18:15.028Z,99610.31
2018-02-11T12:20:42.689Z,99603.41
2018-02-11T12:23:10.316Z,99611.70
2018-02-11T12:25:38.422Z,99614.17
2018-02-11T12:28:06.186Z,99612.92
2018-02-11T12:30:33.961Z,99618.89
2018-02-11T12:33:01.753Z,99614.66
2018-02-11T12:35:29.498Z,99612.39
2018-02-11T12:37:58.441Z,99618.47
2018-02-11T12:40:26.552Z,99618.45
2018-02-11T12:42:54.268Z,99617.86
2018-02-11T12:45:25.905Z,99629.50
2018-02-11T12:47:54.811Z,99627.59
2018-02-11T12:50:22.843Z,99630.78
2018-02-11T12:52:50.691Z,99627.41
2018-02-11T12:55:18.411Z,99643.09
2018-02-11T12:57:46.168Z,99639.64
2018-02-11T13:00:14.019Z,99652.03
2018-02-11T13:02:41.779Z,99644.89
2018-02-11T13:05:09.565Z,99638.83
2018-02-11T13:07:37.240Z,99647.71
2018-02-11T13:10:04.966Z,99654.97
2018-02-11T13:12:32.690Z,99657.76
2018-02-11T13:15:00.377Z,99668.20
2018-02-11T13:17:28.445Z,99663.28
2018-02-11T13:19:56.157Z,99667.09
2018-02-11T13:22:23.813Z,99677.12
2018-02-11T13:24:51.569Z,99679.34
2018-02-11T13:27:19.301Z,99676.66
2018-02-11T13:29:46.977Z,99672.97
2018-02-11T13:32:14.662Z,99671.41
2018-02-11T13:34:42.390Z,99671.55
2018-02-11T13:37:10.030Z,99663.23
2018-02-11T13:39:37.996Z,99680.09
2018-02-11T13:42:05.691Z,99681.40
2018-02-11T13:44:33.388Z,99691.95
2018-02-11T13:47:01.113Z,99680.75
2018-02-11T13:49:28.776Z,99681.61
2018-02-11T13:51:56.456Z,99685.92
2018-02-11T13:54:24.195Z,99687.58
2018-02-11T13:56:51.895Z,99685.45
2018-02-11T13:59:19.620Z,99700.50
2018-02-11T14:01:47.311Z,99706.92
2018-02-11T14:04:15.060Z,99715.98
2018-02-11T14:06:42.775Z,99688.40
2018-02-11T14:09:10.580Z,99707.88
2018-02-11T14:11:38.224Z,99708.59
2018-02-11T14:14:06.974Z,99707.37
2018-02-11T14:16:35.127Z,99698.23
2018-02-11T14:19:02.790Z,99695.27
2018-02-11T14:21:30.875Z,99697.48
2018-02-11T14:23:58.607Z,99704.13
2018-02-11T14:26:26.346Z,99707.66
2018-02-11T14:28:54.060Z,99723.17
2018-02-11T14:31:21.924Z,99729.85
2018-02-11T14:33:49.867Z,99724.51
2018-02-11T14:36:17.599Z,99726.89
2018-02-11T14:38:46.816Z,99734.23
2018-02-11T14:41:14.902Z,99732.69
2018-02-11T14:43:46.111Z,99734.56
2018-02-11T14:46:13.867Z,99736.09
2018-02-11T14:48:42.891Z,99729.48
2018-02-11T14:51:10.729Z,99732.97
2018-02-11T14:53:38.535Z,99736.20
2018-02-11T14:56:06.324Z,99735.38
2018-02-11T14:58:52.330Z,99737.62
2018-02-11T15:01:20.447Z,99743.95
2018-02-11T15:03:48.141Z,99737.48
2018-02-11T15:06:15.900Z,99737.29
2018-02-11T15:08:43.990Z,99745.77
2018-02-11T15:11:11.728Z,99751.01
2018-02-11T15:13:40.077Z,99748.73
2018-02-11T15:16:07.716Z,99756.58
2018-02-11T15:18:35.415Z,99762.16
2018-02-11T15:21:04.134Z,99773.02
2018-02-11T15:23:32.970Z,99756.27
2018-02-11T15:26:06.320Z,99752.55
2018-02-11T15:28:34.609Z,99764.48
2018-02-11T15:31:02.690Z,99769.75
2018-02-11T15:33:30.373Z,99773.16
2018-02-11T15:35:58.053Z,99777.56
2018-02-11T15:38:25.768Z,99778.70
2018-02-11T15:40:53.431Z,99783.44
2018-02-11T15:43:21.118Z,99784.27
2018-02-11T15:45:49.043Z,99795.23
2018-02-11T15:48:16.628Z,99804.88
2018-02-11T15:50:44.281Z,99795.11
2018-02-11T15:53:12.032Z,99798.19
2018-02-11T15:55:46.465Z,99802.52
2018-02-11T15:58:20.508Z,99801.90
2018-02-11T16:00:48.463Z,99806.19
2018-02-11T16:03:16.266Z,99798.25
2018-02-11T16:05:43.982Z,99802.98
2018-02-11T16:08:11.679Z,99803.24
2018-02-11T16:10:39.471Z,99821.38
2018-02-11T16:13:07.765Z,99825.70
2018-02-11T16:15:35.525Z,99824.18
2018-02-11T16:18:03.274Z,99826.53
2018-02-11T16:20:31.089Z,99827.91
2018-02-11T16:22:58.850Z,99833.77
2018-02-11T16:25:26.613Z,99832.84
2018-02-11T16:27:54.385Z,99853.47
2018-02-11T16:30:22.120Z,99879.73
2018-02-11T16:32:49.824Z,99872.06
2018-02-11T16:35:17.468Z,99863.98
2018-02-11T16:37:45.341Z,99860.14
2018-02-11T16:40:13.360Z,99854.58
2018-02-11T16:42:41.097Z,99857.20
2018-02-11T16:45:08.882Z,99857.98
2018-02-11T16:47:36.688Z,99859.64
2018-02-11T16:50:04.442Z,99860.31
2018-02-11T16:52:32.147Z,99866.69
2018-02-11T16:54:59.786Z,99873.44
2018-02-11T16:57:27.758Z,99870.26
2018-02-11T16:59:55.459Z,99878.98
2018-02-11T17:02:23.165Z,99882.67
2018-02-11T17:04:51.066Z,99885.77
2018-02-11T17:07:19.102Z,99890.59
2018-02-11T17:09:53.131Z,99888.88
2018-02-11T17:12:22.661Z,99891.27
2018-02-11T17:14:53.433Z,99894.87
2018-02-11T17:17:21.187Z,99897.95
2018-02-11T17:19:49.245Z,99905.38
2018-02-11T17:23:05.669Z,99906.19
2018-02-11T17:25:40.394Z,99909.30
2018-02-11T17:28:09.739Z,99911.46
2018-02-11T17:30:37.904Z,99912.68
2018-02-11T17:33:09.223Z,99913.92
2018-02-11T17:35:36.881Z,99916.09
2018-02-11T17:38:04.638Z,99919.84
2018-02-11T17:40:32.307Z,99919.70
2018-02-11T17:42:59.971Z,99926.78
2018-02-11T17:45:30.908Z,99923.82
2018-02-11T17:47:58.587Z,99926.50
2018-02-11T17:50:26.324Z,99929.89
2018-02-11T17:52:54.453Z,99932.16
2018-02-11T17:55:27.869Z,99938.59
2018-02-11T17:57:55.552Z,99932.61
2018-02-11T18:00:23.200Z,99937.98
2018-02-11T18:02:50.822Z,99937.86
2018-02-11T18:05:18.474Z,99939.75
2018-02-11T18:07:46.241Z,99943.53
2018-02-11T18:10:13.882Z,99946.39
2018-02-11T18:12:41.575Z,99945.19
2018-02-11T18:15:09.245Z,99952.59
2018-02-11T18:17:36.924Z,99952.08
2018-02-11T18:20:04.593Z,99947.95
2018-02-11T18:22:32.230Z,99949.63
2018-02-11T18:24:59.872Z,99955.39
2018-02-11T18:27:27.597Z,99953.91
2018-02-11T18:29:55.330Z,99963.84
2018-02-11T18:32:23.014Z,99963.29
2018-02-11T18:34:51.044Z,99971.17
2018-02-11T18:37:18.776Z,99976.44
2018-02-11T18:39:46.468Z,99970.94
2018-02-11T18:42:14.548Z,99982.05
2018-02-11T18:44:42.257Z,99983.66
2018-02-11T18:47:09.966Z,99988.38
2018-02-11T18:49:37.704Z,99988.11
2018-02-11T18:52:05.400Z,99989.45
2018-02-11T18:54:33.089Z,99990.28
2018-02-11T18:57:00.871Z,99985.75
2018-02-11T18:59:28.657Z,99991.94
2018-02-11T19:01:56.398Z,99993.29
2018-02-11T19:04:24.174Z,99991.03
2018-02-11T19:06:52.351Z,99997.98
2018-02-11T19:09:20.084Z,99992.13
2018-02-11T19:11:47.878Z,99994.95
2018-02-11T19:14:15.639Z,100000.86
2018-02-11T19:16:43.351Z,100009.54
2018-02-11T19:19:11.080Z,100009.28
2018-02-11T19:21:38.866Z,100014.67
2018-02-11T19:24:06.695Z,100012.79
2018-02-11T19:26:34.434Z,100017.87
2018-02-11T19:29:02.099Z,100025.52
2018-02-11T19:31:29.947Z,100029.67
2018-02-11T19:33:57.645Z,100026.04
2018-02-11T19:36:25.485Z,100028.34
2018-02-11T19:38:53.643Z,100035.16
2018-02-11T19:41:21.367Z,100031.94
2018-02-11T19:43:49.761Z,100031.56
2018-02-11T19:46:17.701Z,100037.29
2018-02-11T19:48:45.460Z,100042.77
2018-02-11T19:51:13.203Z,100038.62
2018-02-11T19:53:41.151Z,100043.19
2018-02-11T19:56:08.923Z,100048.39
2018-02-11T19:58:36.662Z,100052.13
2018-02-11T20:01:04.432Z,100052.27
2018-02-11T20:03:32.206Z,100059.91
2018-02-11T20:06:00.294Z,100061.76
2018-02-11T20:08:28.455Z,100060.84
2018-02-11T20:10:56.205Z,100062.45
2018-02-11T20:13:23.941Z,100061.24
2018-02-11T20:15:51.755Z,100060.59
2018-02-11T20:18:19.533Z,100068.06
2018-02-11T20:20:47.310Z,100066.73
2018-02-11T20:23:15.104Z,100073.95
2018-02-11T20:25:42.833Z,100070.32
2018-02-11T20:28:10.616Z,100072.61
2018-02-11T20:30:38.709Z,100073.12
2018-02-11T20:33:06.411Z,100081.69
2018-02-11T20:35:34.146Z,100080.89
2018-02-11T20:38:02.258Z,100082.61
2018-02-11T20:40:30.026Z,100084.36
2018-02-11T20:42:58.197Z,100091.96
2018-02-11T20:45:26.264Z,100104.53
2018-02-11T20:47:53.995Z,100110.12
2018-02-11T20:50:21.788Z,100107.86
2018-02-11T20:52:49.542Z,100104.91
2018-02-11T20:55:17.633Z,100118.03
2018-02-11T20:57:45.299Z,100112.28
2018-02-11T21:00:13.028Z,100112.80
2018-02-11T21:02:40.829Z,100122.70
2018-02-11T21:05:08.591Z,100118.15
2018-02-11T21:07:36.668Z,100123.77
2018-02-11T21:10:04.378Z,100129.49
2018-02-11T21:12:32.117Z,100131.10
2018-02-11T21:15:01.897Z,100139.39
2018-02-11T21:17:29.627Z,100138.70
2018-02-11T21:19:57.364Z,100136.86
2018-02-11T21:22:25.434Z,100132.44
2018-02-11T21:24:53.183Z,100136.45
2018-02-11T21:27:20.919Z,100131.52
2018-02-11T21:29:48.701Z,100143.68
2018-02-11T21:32:16.387Z,100143.27
2018-02-11T21:34:44.040Z,100142.20
2018-02-11T21:37:11.794Z,100143.13
2018-02-11T21:39:39.522Z,100137.00
2018-02-11T21:42:08.020Z,100141.11
2018-02-11T21:44:36.260Z,100147.66
2018-02-11T21:47:04.482Z,100152.48
2018-02-11T21:49:32.822Z,100157.83
2018-02-11T21:52:00.938Z,100157.97
2018-02-11T21:54:28.751Z,100163.83
2018-02-11T21:56:56.526Z,100158.11
2018-02-11T21:59:24.214Z,100158.52
2018-02-11T22:01:52.008Z,100161.70
2018-02-11T22:04:19.697Z,100161.30
2018-02-11T22:06:47.359Z,100153.03
2018-02-11T22:09:15.403Z,100154.47
2018-02-11T22:11:43.067Z,100152.21
2018-02-11T22:14:10.755Z,100162.63
2018-02-11T22:16:38.859Z,100175.34
2018-02-11T22:19:11.355Z,100175.62
2018-02-11T22:21:39.008Z,100181.09
2018-02-11T22:24:06.773Z,100180.27
2018-02-11T22:26:34.763Z,100178.80
2018-02-11T22:29:02.978Z,100188.05
2018-02-11T22:31:30.739Z,100186.03
2018-02-11T22:33:58.480Z,100195.92
2018-02-11T22:36:26.259Z,100203.95
2018-02-11T22:38:53.928Z,100205.02
2018-02-11T22:41:21.539Z,100202.98
2018-02-11T22:43:49.229Z,100200.73
2018-02-11T22:46:17.703Z,100200.59
2018-02-11T22:48:45.663Z,100200.32
2018-02-11T22:51:13.371Z,100208.20
2018-02-11T22:53:41.111Z,100211.28
2018-02-11T22:56:09.067Z,100213.54
2018-02-11T22:58:36.773Z,100215.69
2018-02-11T23:01:04.792Z,100213.81
2018-02-11T23:03:32.769Z,100211.81
2018-02-11T23:06:00.552Z,100219.98
2018-02-11T23:08:28.311Z,100230.39
2018-02-11T23:10:56.019Z,100220.75
2018-02-11T23:13:23.727Z,100224.11
2018-02-11T23:15:51.467Z,100229.45
2018-02-11T23:18:19.151Z,100225.59
2018-02-11T23:20:46.912Z,100235.05
2018-02-11T23:23:14.579Z,100225.72
2018-02-11T23:25:49.277Z,100234.53
2018-02-11T23:28:16.997Z,100229.59
2018-02-11T23:30:44.949Z,100228.24
2018-02-11T23:33:12.660Z,100226.36
2018-02-11T23:35:40.370Z,100227.56
2018-02-11T23:38:08.479Z,100227.69
2018-02-11T23:40:36.168Z,100231.03
2018-02-11T23:43:03.864Z,100243.98
2018-02-11T23:45:31.944Z,100256.67
2018-02-11T23:47:59.598Z,100247.05
2018-02-11T23:50:27.397Z,100243.33
2018-02-11T23:52:55.266Z,100244.66
2018-02-11T23:55:23.043Z,100240.80
2018-02-11T23:57:51.071Z,100246.92
